createdAt,value
2023-03-27T00:00:03.278Z,1005.75
2023-03-27T00:05:02.985Z,1005.91
2023-03-27T00:10:03.078Z,1006.02
2023-03-27T00:15:03.141Z,1006.1
2023-03-27T00:20:03.748Z,1006.23
2023-03-27T00:25:03.588Z,1006.25
2023-03-27T00:30:03.350Z,1006.32
2023-03-27T00:35:03.690Z,1006.55
2023-03-27T00:40:03.093Z,1006.6
2023-03-27T00:45:02.828Z,1006.6
2023-03-27T00:50:02.937Z,1006.67
2023-03-27T00:55:03.840Z,1006.72
2023-03-27T01:00:03.648Z,1006.76
2023-03-27T01:05:03.211Z,1006.86
2023-03-27T01:10:02.986Z,1006.91
2023-03-27T01:15:03.362Z,1007
2023-03-27T01:20:03.446Z,1006.98
2023-03-27T01:25:03.596Z,1007.06
2023-03-27T01:30:03.343Z,1007.07
2023-03-27T01:35:04.242Z,1007.27
2023-03-27T01:40:02.913Z,1007.36
2023-03-27T01:45:02.820Z,1007.37
2023-03-27T01:50:03.537Z,1007.49
2023-03-27T01:55:04.346Z,1007.61
2023-03-27T02:00:20.232Z,1007.6
2023-03-27T02:05:03.135Z,1007.84
2023-03-27T02:10:02.917Z,1007.86
2023-03-27T02:15:26.094Z,1007.84
2023-03-27T02:20:03.098Z,1007.89
2023-03-27T02:25:02.978Z,1008.08
2023-03-27T02:30:02.929Z,1008.11
2023-03-27T02:35:03.764Z,1008.23
2023-03-27T02:40:03.743Z,1008.34
2023-03-27T02:45:03.452Z,1008.35
2023-03-27T02:50:03.349Z,1008.36
2023-03-27T02:55:03.380Z,1008.48
2023-03-27T03:00:03.793Z,1008.6
2023-03-27T03:05:03.596Z,1008.67
2023-03-27T03:10:03.555Z,1008.84
2023-03-27T03:15:03.231Z,1008.89
2023-03-27T03:20:03.042Z,1009.02
2023-03-27T03:25:03.643Z,1009.21
2023-03-27T03:30:03.589Z,1009.34
2023-03-27T03:35:03.555Z,1009.4
2023-03-27T03:40:03.397Z,1009.47
2023-03-27T03:45:03.111Z,1009.63
2023-03-27T03:50:03.800Z,1009.79
2023-03-27T03:55:03.962Z,1009.88
2023-03-27T04:00:03.400Z,1010.03
2023-03-27T04:05:11.094Z,1010.12
2023-03-27T04:10:02.929Z,1010.28
2023-03-27T04:15:03.727Z,1010.28
2023-03-27T04:20:02.974Z,1010.45
2023-03-27T04:25:03.800Z,1010.48
2023-03-27T04:30:03.485Z,1010.52
2023-03-27T04:35:03.184Z,1010.73
2023-03-27T04:40:03.102Z,1010.74
2023-03-27T04:45:02.866Z,1010.77
2023-03-27T04:50:03.497Z,1010.96
2023-03-27T04:55:03.596Z,1011.03
2023-03-27T05:00:03.046Z,1011.17
2023-03-27T05:05:03.702Z,1011.29
2023-03-27T05:10:03.623Z,1011.31
2023-03-27T05:15:03.266Z,1011.48
2023-03-27T05:20:03.215Z,1011.59
2023-03-27T05:25:02.826Z,1011.61
2023-03-27T05:30:03.617Z,1011.75
2023-03-27T05:35:03.315Z,1011.78
2023-03-27T05:40:03.563Z,1011.8
2023-03-27T05:45:03.607Z,1012.06
2023-03-27T05:50:03.275Z,1012.24
2023-03-27T05:55:03.735Z,1012.21
2023-03-27T06:00:03.684Z,1012.23
2023-03-27T06:05:03.473Z,1012.37
2023-03-27T06:10:03.373Z,1012.46
2023-03-27T06:15:03.221Z,1012.52
2023-03-27T06:20:03.159Z,1012.61
2023-03-27T06:25:03.619Z,1012.68
2023-03-27T06:30:03.373Z,1012.73
2023-03-27T06:35:03.473Z,1012.86
2023-03-27T06:40:03.154Z,1012.81
2023-03-27T06:45:03.116Z,1012.95
2023-03-27T06:50:03.777Z,1012.94
2023-03-27T06:55:03.196Z,1013.04
2023-03-27T07:00:03.794Z,1013.04
2023-03-27T07:05:06.481Z,1013.02
2023-03-27T07:10:03.344Z,1013.21
2023-03-27T07:15:03.164Z,1013.16
2023-03-27T07:20:02.959Z,1013.25
2023-03-27T07:25:03.926Z,1013.22
2023-03-27T07:30:03.854Z,1013.23
2023-03-27T07:35:03.120Z,1013.37
2023-03-27T07:40:03.089Z,1013.46
2023-03-27T07:45:05.180Z,1013.51
2023-03-27T07:50:03.704Z,1013.51
2023-03-27T07:55:03.362Z,1013.54
2023-03-27T08:00:03.387Z,1013.51
2023-03-27T08:05:03.608Z,1013.55
2023-03-27T08:10:02.921Z,1013.52
2023-03-27T08:15:03.750Z,1013.63
2023-03-27T08:20:03.661Z,1013.64
2023-03-27T08:25:03.209Z,1013.57
2023-03-27T08:30:03.321Z,1013.7
2023-03-27T08:35:02.914Z,1013.66
2023-03-27T08:40:03.640Z,1013.7
2023-03-27T08:45:02.905Z,1013.79
2023-03-27T08:50:03.526Z,1013.85
2023-03-27T08:55:04.168Z,1013.86
2023-03-27T09:00:03.491Z,1013.83
2023-03-27T09:05:03.203Z,1013.88
2023-03-27T09:10:03.819Z,1013.87
2023-03-27T09:15:02.916Z,1013.93
2023-03-27T09:20:03.640Z,1013.98
2023-03-27T09:25:03.843Z,1014.04
2023-03-27T09:30:07.015Z,1014.14
2023-03-27T09:35:02.888Z,1014.12
2023-03-27T09:40:03.703Z,1014.18
2023-03-27T09:45:03.463Z,1014.25
2023-03-27T09:50:03.379Z,1014.15
2023-03-27T09:55:02.829Z,1014.24
2023-03-27T10:00:02.925Z,1014.31
2023-03-27T10:05:03.702Z,1014.37
2023-03-27T10:10:03.557Z,1014.49
2023-03-27T10:15:03.552Z,1014.53
2023-03-27T10:20:03.171Z,1014.54
2023-03-27T10:25:02.973Z,1014.54
2023-03-27T10:30:03.159Z,1014.44
2023-03-27T10:35:03.645Z,1014.42
2023-03-27T10:40:03.764Z,1014.58
2023-03-27T10:45:03.358Z,1014.66
2023-03-27T10:50:03.184Z,1014.64
2023-03-27T10:55:03.502Z,1014.58
2023-03-27T11:00:03.055Z,1014.6
2023-03-27T11:05:03.716Z,1014.57
2023-03-27T11:10:03.376Z,1014.56
2023-03-27T11:15:03.047Z,1014.68
2023-03-27T11:20:02.859Z,1014.5
2023-03-27T11:25:02.820Z,1014.62
2023-03-27T11:30:03.528Z,1014.74
2023-03-27T11:35:05.128Z,1015.09
2023-03-27T11:40:02.986Z,1014.9
2023-03-27T11:45:03.716Z,1014.82
2023-03-27T11:50:03.740Z,1014.82
2023-03-27T11:55:03.667Z,1014.81
2023-03-27T12:00:03.346Z,1014.71
2023-03-27T12:05:03.395Z,1014.71
2023-03-27T12:10:03.136Z,1014.83
2023-03-27T12:15:02.802Z,1014.81
2023-03-27T12:20:03.759Z,1014.95
2023-03-27T12:25:03.548Z,1015.06
2023-03-27T12:30:03.191Z,1015.32
2023-03-27T12:35:02.879Z,1015.75
2023-03-27T12:40:03.678Z,1015.78
2023-03-27T12:45:03.508Z,1015.84
2023-03-27T12:50:03.192Z,1015.79
2023-03-27T12:55:03.348Z,1015.76
2023-03-27T13:00:03.934Z,1015.82
2023-03-27T13:05:28.082Z,1015.77
2023-03-27T13:10:03.096Z,1015.81
2023-03-27T13:15:04.011Z,1015.87
2023-03-27T13:20:03.716Z,1015.86
2023-03-27T13:25:03.675Z,1015.86
2023-03-27T13:30:03.439Z,1015.71
2023-03-27T13:35:03.064Z,1015.92
2023-03-27T13:40:03.036Z,1015.86
2023-03-27T13:45:03.908Z,1015.9
2023-03-27T13:50:03.652Z,1015.85
2023-03-27T13:55:03.511Z,1015.83
2023-03-27T14:00:03.515Z,1015.92
2023-03-27T14:05:02.828Z,1015.78
2023-03-27T14:10:02.982Z,1016
2023-03-27T14:15:03.876Z,1015.89
2023-03-27T14:20:03.953Z,1015.83
2023-03-27T14:25:03.593Z,1015.96
2023-03-27T14:30:03.634Z,1015.91
2023-03-27T14:35:03.276Z,1015.77
2023-03-27T14:40:03.658Z,1015.8
2023-03-27T14:45:03.111Z,1015.77
2023-03-27T14:50:02.750Z,1015.9
2023-03-27T14:55:03.799Z,1015.81
2023-03-27T15:00:03.459Z,1015.81
2023-03-27T15:05:03.291Z,1016.03
2023-03-27T15:10:02.962Z,1016.14
2023-03-27T15:15:04.008Z,1016.4
2023-03-27T15:20:03.623Z,1016.35
2023-03-27T15:25:03.784Z,1016.48
2023-03-27T15:30:03.432Z,1016.55
2023-03-27T15:35:03.109Z,1016.59
2023-03-27T15:40:02.897Z,1016.58
2023-03-27T15:45:03.638Z,1016.66
2023-03-27T15:50:03.470Z,1016.73
2023-03-27T15:55:03.522Z,1016.76
2023-03-27T16:00:03.061Z,1016.93
2023-03-27T16:05:02.838Z,1016.89
2023-03-27T16:10:03.709Z,1017.02
2023-03-27T16:15:09.183Z,1016.98
2023-03-27T16:20:03.176Z,1016.96
2023-03-27T16:25:03.765Z,1016.97
2023-03-27T16:30:03.766Z,1017.11
2023-03-27T16:35:03.519Z,1017.17
2023-03-27T16:40:03.149Z,1017.24
2023-03-27T16:45:02.930Z,1017.21
2023-03-27T16:50:12.624Z,1017.28
2023-03-27T16:55:08.125Z,1017.31
2023-03-27T17:00:03.267Z,1017.36
2023-03-27T17:05:03.343Z,1017.44
2023-03-27T17:10:02.906Z,1017.52
2023-03-27T17:15:02.827Z,1017.69
2023-03-27T17:20:06.838Z,1017.8
2023-03-27T17:25:03.455Z,1017.82
2023-03-27T17:30:03.727Z,1017.85
2023-03-27T17:35:03.493Z,1018.04
2023-03-27T17:40:03.712Z,1018
2023-03-27T17:45:03.462Z,1018.12
2023-03-27T17:50:05.835Z,1018.28
2023-03-27T17:55:03.525Z,1018.4
2023-03-27T18:00:06.998Z,1018.47
2023-03-27T18:05:03.075Z,1018.53
2023-03-27T18:10:03.552Z,1018.44
2023-03-27T18:15:03.552Z,1018.55
2023-03-27T18:20:03.566Z,1018.43
2023-03-27T18:25:02.998Z,1018.43
2023-03-27T18:30:02.877Z,1018.52
2023-03-27T18:35:03.672Z,1018.47
2023-03-27T18:40:03.594Z,1018.3
2023-03-27T18:45:03.510Z,1018.36
2023-03-27T18:50:03.351Z,1018.48
2023-03-27T18:55:02.935Z,1018.39
2023-03-27T19:00:03.100Z,1018.43
2023-03-27T19:05:02.855Z,1018.51
2023-03-27T19:10:02.747Z,1018.5
2023-03-27T19:15:20.857Z,1018.56
2023-03-27T19:20:03.762Z,1018.39
2023-03-27T19:25:03.584Z,1018.39
2023-03-27T19:30:03.271Z,1018.42
2023-03-27T19:35:02.940Z,1018.44
2023-03-27T19:40:03.672Z,1018.55
2023-03-27T19:45:03.515Z,1018.42
2023-03-27T19:50:03.144Z,1018.49
2023-03-27T19:55:03.029Z,1018.46
2023-03-27T20:00:03.744Z,1018.37
2023-03-27T20:05:03.413Z,1018.44
2023-03-27T20:10:03.626Z,1018.44
2023-03-27T20:15:17.754Z,1018.46
2023-03-27T20:20:03.609Z,1018.46
2023-03-27T20:25:03.672Z,1018.42
2023-03-27T20:30:03.297Z,1018.44
2023-03-27T20:35:25.380Z,1018.37
2023-03-27T20:40:03.276Z,1018.4
2023-03-27T20:45:03.210Z,1018.27
2023-03-27T20:50:02.905Z,1018.3
2023-03-27T20:55:03.883Z,1018.29
2023-03-27T21:00:03.492Z,1018.29
2023-03-27T21:05:03.210Z,1018.24
2023-03-27T21:10:03.050Z,1018.18
2023-03-27T21:15:03.864Z,1018.2
2023-03-27T21:20:03.599Z,1018.2
2023-03-27T21:25:03.269Z,1018.15
2023-03-27T21:30:03.209Z,1018.21
2023-03-27T21:35:03.411Z,1018.15
2023-03-27T21:40:03.069Z,1018.15
2023-03-27T21:45:02.916Z,1018.24
2023-03-27T21:50:03.684Z,1018.18
2023-03-27T21:55:04.658Z,1018.2
2023-03-27T22:00:03.385Z,1018.21
2023-03-27T22:05:03.488Z,1018.13
2023-03-27T22:10:02.864Z,1018.24
2023-03-27T22:15:03.216Z,1018.23
2023-03-27T22:20:04.023Z,1018.19
2023-03-27T22:25:03.476Z,1018.23
2023-03-27T22:30:03.697Z,1018.27
2023-03-27T22:35:03.335Z,1018.16
2023-03-27T22:40:03.117Z,1018.22
2023-03-27T22:45:02.974Z,1018.18
2023-03-27T22:50:03.677Z,1018.35
2023-03-27T22:55:03.879Z,1018.36
2023-03-27T23:00:03.111Z,1018.33
2023-03-27T23:05:02.894Z,1018.46
2023-03-27T23:10:03.624Z,1018.4
2023-03-27T23:15:03.533Z,1018.42
2023-03-27T23:20:03.183Z,1018.51
2023-03-27T23:25:03.112Z,1018.46
2023-03-27T23:30:02.841Z,1018.56
2023-03-27T23:35:03.644Z,1018.56
2023-03-27T23:40:03.680Z,1018.53
2023-03-27T23:45:03.455Z,1018.53
2023-03-27T23:50:03.078Z,1018.53
2023-03-27T23:55:04.164Z,1018.59
